Airfield :
LOGIN :

Register | Disclaimer

   EN    FR    IT 

 










Legend :    VFR   Marginal VFR   IFR   Intensive IFR   Very Intensive IFR
Visi :
Ceiling :
>= 8 km
>= 3000ft
5 to 8 km
1000 to 3000 ft
1500m to 5 km
500 to 1000 ft
800 to 1500m
200 to 500 ft
< 800m
< 200 ft
Symbols :   Thunderstorms  Fog  Heavy snow  Heavy precipitations  Wind > 20 kt
SIGMETs :     Misc.  Thunderstorms  Icing  Turbulence  Mountain Waves  Volcanic Ashes







- Airport Elevation : 266 ft
- IATA code : NCL
- Download approach charts


EGNT - Newcastle

CURRENT METAR :
  • 241420Z 25020KT 9999 -RA FEW018 BKN022 08/04 Q1022

EXPIRED METARs :
  • 241320Z 26022KT 220V280 9999 BKN025 10/03 Q1023
  • 241250Z 25023KT 9999 BKN025 09/02 Q1023
  • 241220Z 25019KT 9999 BKN030 08/02 Q1024
  • 241150Z 25018KT 200V270 9999 FEW032 09/03 Q1024

TAF TAF EGNT
Valid from the 24 at 12:00 until the 25 at 12:00 UTC


241055Z 2412/2512 27018G30KT 9999 SCT025
TEMPO 2412/2418 6000 SHRA BKN014
BECMG 2419/2422 29012KT
ATIS : +44 191 214 3400
No reported NOTAMs for that airfield.
1 SIGMET reported for the Scottish FIR (EGPX) :
 
Severe turbulence
EGPX SIGMET 01 VALID 241400/241800 EGRR
EGPX SCOTTISH FIR SEV TURB FCST WI N6100 W01000 - N6100 W00452 - N5851 W00049 - N5704 W00457 - N5904 W01000 - N6100 W01000 SFC/FL060 MOV SE 25KT NC=



MET'MAP, your aeronautical weather chart ! - Copyright ORBIFLY December 2007 - Disclaimer

ORBIFLY MET'MAP TEAM :

Programming & Development : Alexandra Zaïnal
Concept & Development : Baudouin d'Aumeries
Co-Development & Prog : Marc-Olivier Méhu
Technical & hardware support : Manuel Goepfert

Contact : metmap@orbifly.com




SOURCES & CREDITS :

   NOAA